Time;durP1;ratioP1;P1;durP2;ratioP2;P2;SDS_P1;SDS_P2;PMS_P1;PMS_P2;Temp;Humidity;BMP_temperature;BMP_pressure;BME280_temperature;BME280_humidity;BME280_pressure;Samples;Min_cycle;Max_cycle;Signal;HPM_P1;HPM_P2
2021/07/20 00:00:10;;;;;;;21.23;12.15;;;19.30;99.90;;;;;;5071534;28;20106;-55
2021/07/20 00:02:38;;;;;;;24.17;12.20;;;19.30;99.90;;;;;;5072721;28;20076;-59
2021/07/20 00:05:06;;;;;;;23.80;12.18;;;19.30;99.90;;;;;;5071781;28;20036;-58
2021/07/20 00:07:32;;;;;;;23.75;12.40;;;19.20;99.90;;;;;;5079303;28;20257;-57
2021/07/20 00:09:59;;;;;;;26.35;12.40;;;19.20;99.90;;;;;;5076682;28;20060;-57
2021/07/20 00:12:24;;;;;;;21.08;12.70;;;19.20;99.90;;;;;;5071914;28;20441;-59
2021/07/20 00:14:50;;;;;;;24.83;12.52;;;19.10;99.90;;;;;;5072995;28;20037;-56
2021/07/20 00:17:21;;;;;;;23.15;12.20;;;19.10;99.90;;;;;;5072469;28;20086;-56
2021/07/20 00:19:47;;;;;;;27.45;14.02;;;19.10;99.90;;;;;;5080034;28;20094;-57
2021/07/20 00:22:12;;;;;;;22.17;11.60;;;19.10;99.90;;;;;;5070882;28;20418;-58
2021/07/20 00:24:38;;;;;;;24.58;11.88;;;19.10;99.90;;;;;;5082856;28;20111;-54
2021/07/20 00:27:04;;;;;;;21.42;11.50;;;19.20;99.90;;;;;;5082508;28;20079;-58
2021/07/20 00:29:30;;;;;;;24.73;12.55;;;19.20;99.90;;;;;;5078700;28;20520;-55
2021/07/20 00:31:55;;;;;;;21.25;11.50;;;19.10;99.90;;;;;;5071537;28;20021;-56
2021/07/20 00:34:21;;;;;;;21.83;11.27;;;19.10;99.90;;;;;;5075599;28;20463;-56
2021/07/20 00:36:47;;;;;;;21.95;11.40;;;19.00;99.90;;;;;;5073962;28;20392;-54
2021/07/20 00:39:13;;;;;;;15.85;9.98;;;19.00;99.90;;;;;;5075282;28;20063;-58
2021/07/20 00:41:38;;;;;;;17.05;10.75;;;19.00;99.90;;;;;;5069850;28;20028;-57
2021/07/20 00:44:05;;;;;;;20.02;10.50;;;19.00;99.90;;;;;;5071746;28;20490;-58
2021/07/20 00:46:31;;;;;;;20.65;10.77;;;19.00;99.90;;;;;;5082458;28;20112;-58
2021/07/20 00:48:56;;;;;;;20.77;10.50;;;19.00;99.90;;;;;;5077161;28;20107;-57
2021/07/20 00:51:22;;;;;;;20.25;10.38;;;18.90;99.90;;;;;;5072322;28;20032;-57
2021/07/20 00:53:48;;;;;;;21.25;11.55;;;18.90;99.90;;;;;;5071959;28;20055;-56
2021/07/20 00:56:15;;;;;;;21.92;11.55;;;18.80;99.90;;;;;;5073160;28;20024;-57
2021/07/20 00:58:42;;;;;;;19.85;11.40;;;18.80;99.90;;;;;;5072571;28;20407;-58
2021/07/20 01:01:08;;;;;;;21.88;11.27;;;18.80;99.90;;;;;;5070646;28;20024;-58
2021/07/20 01:03:35;;;;;;;24.42;12.38;;;18.80;99.90;;;;;;5073061;28;20020;-56
2021/07/20 01:06:05;;;;;;;19.42;11.52;;;18.80;99.90;;;;;;5073544;28;20060;-56
2021/07/20 01:08:31;;;;;;;29.13;11.60;;;18.80;99.90;;;;;;5076064;28;20028;-56
2021/07/20 01:11:01;;;;;;;19.13;11.43;;;18.80;99.90;;;;;;5070955;28;20083;-54
2021/07/20 01:13:28;;;;;;;20.45;11.70;;;18.80;99.90;;;;;;5071168;28;20036;-57
2021/07/20 01:15:54;;;;;;;24.05;12.20;;;18.80;99.90;;;;;;5074756;28;20028;-57
2021/07/20 01:18:22;;;;;;;23.13;12.88;;;18.80;99.90;;;;;;5075970;28;20111;-59
2021/07/20 01:20:48;;;;;;;23.35;11.52;;;18.80;99.90;;;;;;5082090;28;20040;-59
2021/07/20 01:23:20;;;;;;;22.52;11.88;;;18.80;99.90;;;;;;5085245;28;20032;-56
2021/07/20 01:25:48;;;;;;;22.02;11.55;;;18.80;99.90;;;;;;5070356;28;20043;-56
2021/07/20 01:28:18;;;;;;;22.63;11.63;;;18.70;99.90;;;;;;5079253;28;20465;-57
2021/07/20 01:30:47;;;;;;;23.50;11.95;;;18.70;99.90;;;;;;5070036;28;20478;-57
2021/07/20 01:33:15;;;;;;;25.38;11.98;;;18.70;99.90;;;;;;5069650;28;20028;-56
2021/07/20 01:35:44;;;;;;;19.83;11.13;;;18.70;99.90;;;;;;5071005;28;20032;-58
2021/07/20 01:38:11;;;;;;;21.40;11.00;;;18.70;99.90;;;;;;5074216;28;20036;-57
2021/07/20 01:40:38;;;;;;;23.42;11.65;;;18.70;99.90;;;;;;5078393;28;20028;-58
2021/07/20 01:43:05;;;;;;;25.08;12.13;;;18.70;99.90;;;;;;5070384;28;20032;-58
2021/07/20 01:45:33;;;;;;;24.55;10.88;;;18.70;99.90;;;;;;5070902;28;20048;-57
2021/07/20 01:48:00;;;;;;;18.98;10.15;;;18.60;99.90;;;;;;5071486;28;20032;-58
2021/07/20 01:50:27;;;;;;;22.05;11.68;;;18.50;99.90;;;;;;5072927;28;20376;-57
2021/07/20 01:52:55;;;;;;;18.33;11.80;;;18.50;99.90;;;;;;5082659;28;20062;-56
2021/07/20 01:55:23;;;;;;;21.83;11.68;;;18.50;99.90;;;;;;5070762;28;20032;-57
2021/07/20 01:57:49;;;;;;;25.02;11.15;;;18.50;99.90;;;;;;5077236;28;20411;-56
2021/07/20 02:00:18;;;;;;;21.55;11.60;;;18.50;99.90;;;;;;5070502;28;20082;-57
2021/07/20 02:08:29;;;;;;;20.48;11.88;;;18.50;99.90;;;;;;5073804;28;20087;-56
2021/07/20 02:11:11;;;;;;;23.55;11.52;;;18.50;99.90;;;;;;5077368;28;20051;-58
2021/07/20 02:13:43;;;;;;;26.35;12.63;;;18.60;99.90;;;;;;5077419;28;20417;-56
2021/07/20 02:16:12;;;;;;;20.27;12.27;;;18.50;99.90;;;;;;5081559;28;20035;-58
2021/07/20 02:18:43;;;;;;;22.15;12.52;;;18.50;99.90;;;;;;5070531;28;20040;-57
2021/07/20 02:21:09;;;;;;;27.45;12.35;;;18.50;99.90;;;;;;5069734;28;20485;-57
2021/07/20 02:23:36;;;;;;;25.80;12.82;;;18.50;99.90;;;;;;5071621;28;20028;-57
2021/07/20 02:26:04;;;;;;;20.30;12.10;;;18.50;99.90;;;;;;5071203;28;20021;-57
2021/07/20 02:28:32;;;;;;;19.83;10.40;;;18.40;99.90;;;;;;5070688;28;20052;-56
2021/07/20 02:30:59;;;;;;;26.77;11.63;;;18.40;99.90;;;;;;5072096;28;20039;-58
2021/07/20 02:33:25;;;;;;;24.20;11.73;;;18.30;99.90;;;;;;5077620;28;20028;-59
2021/07/20 02:35:52;;;;;;;24.27;11.18;;;18.40;99.90;;;;;;5076644;28;20036;-57
2021/07/20 02:38:19;;;;;;;22.25;11.93;;;18.40;99.90;;;;;;5078791;28;20035;-55
2021/07/20 02:40:48;;;;;;;25.38;12.82;;;18.20;99.90;;;;;;5078831;28;20091;-58
2021/07/20 02:43:16;;;;;;;25.67;13.52;;;18.20;99.90;;;;;;5075190;28;20064;-57
2021/07/20 02:45:43;;;;;;;35.30;13.75;;;18.20;99.90;;;;;;5073629;28;20044;-57
2021/07/20 02:48:09;;;;;;;30.60;13.02;;;18.20;99.90;;;;;;5071656;28;20086;-57
2021/07/20 02:50:36;;;;;;;24.45;13.57;;;18.20;99.90;;;;;;5074089;28;20445;-59
2021/07/20 02:53:03;;;;;;;29.92;13.23;;;18.20;99.90;;;;;;5075365;28;20027;-56
2021/07/20 02:55:30;;;;;;;25.85;13.13;;;18.10;99.90;;;;;;5073914;28;20028;-57
2021/07/20 02:57:58;;;;;;;25.60;12.20;;;18.10;99.90;;;;;;5073727;28;20068;-57
2021/07/20 03:00:24;;;;;;;24.88;12.00;;;18.10;99.90;;;;;;5077282;28;20032;-55
2021/07/20 03:02:50;;;;;;;25.85;12.38;;;18.10;99.90;;;;;;5080326;28;20020;-59
2021/07/20 03:05:17;;;;;;;29.02;12.50;;;18.10;99.90;;;;;;5077272;28;20044;-56
2021/07/20 03:07:56;;;;;;;28.88;13.02;;;18.10;99.90;;;;;;5074322;28;20111;-59
2021/07/20 03:10:26;;;;;;;25.05;13.50;;;18.00;99.90;;;;;;5079398;28;20041;-57
2021/07/20 03:12:54;;;;;;;23.92;12.27;;;18.00;99.90;;;;;;5081372;28;20036;-57
2021/07/20 03:15:22;;;;;;;33.17;12.65;;;17.90;99.90;;;;;;5082208;28;20021;-58
2021/07/20 03:17:49;;;;;;;25.33;11.65;;;18.00;99.90;;;;;;5072504;28;20039;-58
2021/07/20 03:20:16;;;;;;;22.83;12.13;;;18.00;99.90;;;;;;5076571;28;20056;-55
2021/07/20 03:22:43;;;;;;;24.75;11.23;;;18.10;99.90;;;;;;5075201;28;20028;-55
2021/07/20 03:25:10;;;;;;;25.98;11.05;;;18.10;99.90;;;;;;5080241;28;20040;-56
2021/07/20 03:27:40;;;;;;;30.30;12.02;;;18.00;99.90;;;;;;5072470;28;20086;-56
2021/07/20 03:30:08;;;;;;;28.27;11.63;;;17.90;99.90;;;;;;5072719;28;20059;-55
2021/07/20 03:32:36;;;;;;;23.05;11.15;;;18.00;99.90;;;;;;5072900;28;20088;-55
2021/07/20 03:35:04;;;;;;;23.80;11.15;;;18.00;99.90;;;;;;5076862;28;20032;-57
2021/07/20 03:37:30;;;;;;;21.08;11.07;;;18.00;99.90;;;;;;5075220;28;20024;-57
2021/07/20 03:39:57;;;;;;;28.33;10.55;;;17.90;99.90;;;;;;5089863;28;20108;-57
2021/07/20 03:42:24;;;;;;;32.22;11.77;;;17.90;99.90;;;;;;5078193;28;20504;-57
2021/07/20 03:44:51;;;;;;;24.92;11.32;;;18.00;99.90;;;;;;5081646;28;20436;-56
2021/07/20 03:47:17;;;;;;;24.90;10.73;;;18.00;99.90;;;;;;5071728;28;20040;-54
2021/07/20 03:49:45;;;;;;;22.38;10.38;;;18.00;99.90;;;;;;5072906;28;20123;-54
2021/07/20 03:52:14;;;;;;;27.00;11.35;;;18.00;99.90;;;;;;5071804;28;20037;-56
2021/07/20 03:54:41;;;;;;;22.33;10.98;;;17.90;99.90;;;;;;5074912;28;20037;-58
2021/07/20 03:57:07;;;;;;;25.52;10.85;;;17.90;99.90;;;;;;5073248;28;20039;-57
2021/07/20 03:59:34;;;;;;;22.02;9.90;;;17.90;99.90;;;;;;5072693;28;20036;-54
2021/07/20 04:02:02;;;;;;;21.63;10.95;;;17.90;99.90;;;;;;5082897;28;20028;-56
2021/07/20 04:04:35;;;;;;;25.98;11.23;;;17.90;99.90;;;;;;5076859;28;20127;-57
2021/07/20 04:07:02;;;;;;;32.55;11.65;;;17.80;99.90;;;;;;5071259;28;20036;-57
2021/07/20 04:09:28;;;;;;;35.25;11.70;;;17.90;99.90;;;;;;5072443;28;20036;-58
2021/07/20 04:11:55;;;;;;;29.00;11.80;;;18.00;99.90;;;;;;5073006;28;20029;-57
2021/07/20 04:14:22;;;;;;;28.70;12.07;;;18.00;99.90;;;;;;5073738;28;20573;-57
2021/07/20 04:16:48;;;;;;;25.92;11.07;;;18.00;99.90;;;;;;5074681;28;20432;-56
2021/07/20 04:19:15;;;;;;;29.70;10.98;;;17.90;99.90;;;;;;5078557;28;20036;-57
2021/07/20 04:21:42;;;;;;;28.48;11.48;;;17.90;99.90;;;;;;5076706;28;20036;-54
2021/07/20 04:24:12;;;;;;;28.50;11.80;;;17.90;99.90;;;;;;5071556;28;20044;-57
2021/07/20 04:26:40;;;;;;;25.50;11.88;;;17.90;99.90;;;;;;5076058;28;20028;-58
2021/07/20 04:29:06;;;;;;;25.17;11.65;;;17.90;99.90;;;;;;5081333;28;20053;-58
2021/07/20 04:31:32;;;;;;;30.20;12.18;;;17.90;99.90;;;;;;5072736;28;20510;-57
2021/07/20 04:33:59;;;;;;;25.33;11.50;;;17.90;99.90;;;;;;5072205;28;20024;-58
2021/07/20 04:36:25;;;;;;;26.90;12.10;;;17.80;99.90;;;;;;5082429;28;20032;-57
2021/07/20 04:38:51;;;;;;;29.83;12.02;;;17.80;99.90;;;;;;5073518;28;20034;-58
2021/07/20 04:41:18;;;;;;;28.70;11.88;;;17.70;99.90;;;;;;5071940;28;20028;-56
2021/07/20 04:43:45;;;;;;;23.52;11.80;;;17.80;99.90;;;;;;5070904;28;20597;-54
2021/07/20 04:46:13;;;;;;;31.70;12.65;;;17.70;99.90;;;;;;5070618;28;20391;-55
2021/07/20 04:48:40;;;;;;;25.20;13.15;;;17.80;99.90;;;;;;5077002;28;20457;-54
2021/07/20 04:51:06;;;;;;;30.58;13.20;;;17.80;99.90;;;;;;5074284;28;20066;-58
2021/07/20 04:53:34;;;;;;;35.22;13.10;;;17.80;99.90;;;;;;5074807;28;20462;-57
2021/07/20 04:56:00;;;;;;;28.60;13.73;;;17.80;99.90;;;;;;5071421;28;20027;-54
2021/07/20 04:58:26;;;;;;;27.88;13.50;;;17.80;99.90;;;;;;5080331;28;20032;-57
2021/07/20 05:00:54;;;;;;;29.92;14.75;;;17.80;99.90;;;;;;5077421;28;20371;-55
2021/07/20 05:03:22;;;;;;;32.00;14.45;;;17.80;99.90;;;;;;5075733;28;20382;-57
2021/07/20 05:05:49;;;;;;;26.55;15.25;;;17.90;99.90;;;;;;5075302;28;20028;-54
2021/07/20 05:08:17;;;;;;;31.80;14.63;;;17.80;99.90;;;;;;5076106;28;20077;-54
2021/07/20 05:10:51;;;;;;;36.92;14.88;;;17.80;99.90;;;;;;5073879;28;20075;-56
2021/07/20 05:13:19;;;;;;;40.05;14.65;;;17.80;99.90;;;;;;5074665;28;20020;-54
2021/07/20 05:16:02;;;;;;;32.90;15.07;;;17.90;99.90;;;;;;5079334;28;20107;-57
2021/07/20 05:18:27;;;;;;;34.20;15.43;;;18.00;99.90;;;;;;5075711;28;20689;-58
2021/07/20 05:21:00;;;;;;;35.72;15.52;;;18.10;99.90;;;;;;5085862;28;20031;-55
2021/07/20 05:23:27;;;;;;;37.35;14.90;;;18.10;99.90;;;;;;5080407;28;20474;-55
2021/07/20 05:25:55;;;;;;;52.33;18.58;;;18.20;99.90;;;;;;5071322;28;20040;-53
2021/07/20 05:28:24;;;;;;;34.33;15.68;;;18.20;99.90;;;;;;5082158;28;20036;-56
2021/07/20 05:30:53;;;;;;;60.45;17.77;;;18.30;99.90;;;;;;5071237;28;20122;-55
2021/07/20 05:33:20;;;;;;;30.65;15.73;;;18.30;99.90;;;;;;5076865;28;20481;-58
2021/07/20 05:35:58;;;;;;;30.05;15.98;;;18.20;99.90;;;;;;5071785;28;20032;-57
2021/07/20 05:38:25;;;;;;;37.30;16.85;;;18.20;99.90;;;;;;5070249;28;20032;-57
2021/07/20 05:40:54;;;;;;;35.45;15.93;;;18.20;99.90;;;;;;5081148;28;20028;-56
2021/07/20 05:43:20;;;;;;;34.35;16.15;;;18.30;99.90;;;;;;5073360;28;20774;-56
2021/07/20 05:45:46;;;;;;;27.75;15.50;;;18.40;99.90;;;;;;5074109;28;20028;-59
2021/07/20 05:48:20;;;;;;;42.38;17.20;;;18.40;99.90;;;;;;5069863;28;20098;-57
2021/07/20 05:50:54;;;;;;;34.10;17.60;;;18.50;99.90;;;;;;5077102;28;20041;-56
2021/07/20 05:53:24;;;;;;;34.83;16.23;;;18.50;99.90;;;;;;5073557;28;20029;-58
2021/07/20 05:55:53;;;;;;;46.80;17.23;;;18.60;99.90;;;;;;5079068;28;20103;-54
2021/07/20 05:58:22;;;;;;;38.17;16.52;;;18.70;99.90;;;;;;5069978;28;20387;-54
2021/07/20 06:00:50;;;;;;;32.55;16.33;;;18.70;99.90;;;;;;5073810;28;20039;-58
2021/07/20 06:03:19;;;;;;;33.15;16.15;;;18.80;99.90;;;;;;5077024;28;20024;-57
2021/07/20 06:05:49;;;;;;;31.17;16.42;;;18.90;99.90;;;;;;5073897;28;20069;-57
2021/07/20 06:08:16;;;;;;;32.72;16.30;;;19.00;99.90;;;;;;5075749;28;20032;-57
2021/07/20 06:10:47;;;;;;;33.17;16.35;;;19.00;99.90;;;;;;5080992;28;20020;-57
2021/07/20 06:13:16;;;;;;;35.83;16.23;;;19.10;99.90;;;;;;5088269;28;20039;-57
2021/07/20 06:15:45;;;;;;;38.30;17.27;;;19.20;99.90;;;;;;5086662;28;20028;-59
2021/07/20 06:18:11;;;;;;;43.10;17.73;;;19.20;99.90;;;;;;5078416;28;20032;-59
2021/07/20 06:20:37;;;;;;;36.40;16.48;;;19.30;99.90;;;;;;5075906;28;20032;-58
2021/07/20 06:23:04;;;;;;;28.17;15.77;;;19.40;99.90;;;;;;5084922;28;20093;-58
2021/07/20 06:25:31;;;;;;;30.42;16.70;;;19.50;99.90;;;;;;5083778;28;20448;-58
2021/07/20 06:27:58;;;;;;;27.17;16.65;;;19.60;99.90;;;;;;5078771;28;20073;-56
2021/07/20 06:30:24;;;;;;;32.33;16.08;;;19.70;99.90;;;;;;5073029;28;20041;-57
2021/07/20 06:32:52;;;;;;;29.80;16.63;;;19.70;99.90;;;;;;5080918;28;20024;-59
2021/07/20 06:35:18;;;;;;;30.92;16.38;;;19.80;99.90;;;;;;5073541;28;20378;-55
2021/07/20 06:37:48;;;;;;;29.40;15.63;;;19.90;99.90;;;;;;5074021;28;20020;-58
2021/07/20 06:40:19;;;;;;;31.98;15.73;;;20.00;99.90;;;;;;5078122;28;20028;-55
2021/07/20 06:42:46;;;;;;;38.35;15.60;;;20.20;99.90;;;;;;5074596;28;20028;-56
2021/07/20 06:45:14;;;;;;;22.63;14.48;;;20.40;99.90;;;;;;5073247;28;20089;-58
2021/07/20 06:47:46;;;;;;;26.58;14.30;;;20.70;99.90;;;;;;5086768;28;20115;-59
2021/07/20 06:50:17;;;;;;;28.83;13.60;;;21.00;99.90;;;;;;5072180;28;21103;-56
2021/07/20 06:52:43;;;;;;;26.70;12.32;;;21.30;99.90;;;;;;5080688;28;20436;-58
2021/07/20 06:55:10;;;;;;;26.33;12.48;;;21.50;99.90;;;;;;5080703;28;20088;-58
2021/07/20 06:57:37;;;;;;;28.98;13.25;;;21.80;99.90;;;;;;5080685;28;20040;-56
2021/07/20 07:00:07;;;;;;;30.00;13.48;;;22.00;99.90;;;;;;5080456;28;20579;-53
2021/07/20 07:02:36;;;;;;;23.45;12.77;;;22.20;99.90;;;;;;5074655;28;20028;-55
2021/07/20 07:05:07;;;;;;;28.95;13.55;;;22.50;99.90;;;;;;5074601;28;20560;-56
2021/07/20 07:07:34;;;;;;;21.60;12.60;;;22.60;99.90;;;;;;5075571;28;20036;-54
2021/07/20 07:10:01;;;;;;;28.92;12.20;;;22.90;99.90;;;;;;5079358;28;20052;-56
2021/07/20 07:12:29;;;;;;;27.98;13.32;;;23.00;99.90;;;;;;5075452;28;20025;-54
2021/07/20 07:14:55;;;;;;;23.20;12.38;;;23.10;99.90;;;;;;5082295;28;20024;-58
2021/07/20 07:17:22;;;;;;;24.35;11.63;;;23.20;99.90;;;;;;5077937;28;20050;-58
2021/07/20 07:19:51;;;;;;;22.08;11.65;;;23.40;99.90;;;;;;5085477;28;20027;-56
2021/07/20 07:22:22;;;;;;;24.40;11.30;;;23.50;99.90;;;;;;5082989;28;20530;-59
2021/07/20 07:24:53;;;;;;;28.98;10.95;;;23.60;99.90;;;;;;5072499;28;20111;-55
2021/07/20 07:27:20;;;;;;;22.63;11.05;;;23.80;99.90;;;;;;5076762;28;20484;-58
2021/07/20 07:29:47;;;;;;;20.60;11.20;;;23.80;99.90;;;;;;5077157;28;20399;-57
2021/07/20 07:32:13;;;;;;;22.25;10.55;;;24.00;99.90;;;;;;5073580;28;20085;-57
2021/07/20 07:34:39;;;;;;;20.90;9.82;;;24.30;99.90;;;;;;5084497;28;20036;-56
2021/07/20 07:37:06;;;;;;;20.17;10.55;;;24.50;99.90;;;;;;5073124;28;20036;-56
2021/07/20 07:39:33;;;;;;;22.58;10.95;;;24.40;99.90;;;;;;5085327;28;20059;-58
2021/07/20 07:42:00;;;;;;;29.95;17.73;;;24.40;99.90;;;;;;5082078;28;20049;-58
2021/07/20 07:44:30;;;;;;;22.63;9.90;;;24.50;99.90;;;;;;5076271;28;20036;-58
2021/07/20 07:46:58;;;;;;;16.08;10.13;;;24.90;99.90;;;;;;5083216;28;20024;-58
2021/07/20 07:49:26;;;;;;;20.45;10.13;;;25.00;99.90;;;;;;5087545;28;20060;-58
2021/07/20 07:51:53;;;;;;;18.48;9.43;;;24.90;99.90;;;;;;5080450;28;20474;-58
2021/07/20 07:54:19;;;;;;;19.98;10.50;;;25.20;99.90;;;;;;5082043;28;20024;-56
2021/07/20 07:56:46;;;;;;;21.80;11.60;;;25.50;99.90;;;;;;5072180;28;20026;-56
2021/07/20 07:59:15;;;;;;;25.27;10.35;;;25.60;99.90;;;;;;5071740;28;20474;-58
2021/07/20 08:01:45;;;;;;;22.00;10.35;;;25.70;99.90;;;;;;5075533;28;20029;-57
2021/07/20 08:04:13;;;;;;;21.30;11.18;;;25.80;99.90;;;;;;5078421;28;20063;-57
2021/07/20 08:06:40;;;;;;;23.02;9.82;;;25.90;99.90;;;;;;5080322;28;20453;-57
2021/07/20 08:09:06;;;;;;;21.45;8.70;;;26.00;99.90;;;;;;5074685;28;20474;-59
2021/07/20 08:11:33;;;;;;;20.92;9.82;;;26.20;99.90;;;;;;5074835;28;20506;-57
2021/07/20 08:14:01;;;;;;;19.55;9.93;;;26.30;99.90;;;;;;5082565;28;20033;-57
2021/07/20 08:16:41;;;;;;;22.83;9.90;;;26.60;99.90;;;;;;5074914;28;20779;-58
2021/07/20 08:19:08;;;;;;;28.02;10.15;;;26.80;99.90;;;;;;5087599;28;20040;-57
2021/07/20 08:21:33;;;;;;;20.05;10.18;;;26.80;99.90;;;;;;5078935;28;20027;-58
2021/07/20 08:24:00;;;;;;;19.70;9.98;;;26.90;99.90;;;;;;5071128;28;20024;-56
2021/07/20 08:26:32;;;;;;;18.02;9.98;;;27.10;99.90;;;;;;5072487;28;20035;-59
2021/07/20 08:29:07;;;;;;;18.70;9.43;;;27.00;99.90;;;;;;5073304;28;20044;-58
2021/07/20 08:31:38;;;;;;;22.17;9.75;;;27.20;99.90;;;;;;5073771;28;20033;-58
2021/07/20 08:34:07;;;;;;;21.55;10.05;;;27.20;99.90;;;;;;5074706;28;20029;-58
2021/07/20 08:36:41;;;;;;;23.85;10.30;;;27.10;99.90;;;;;;5081314;28;20081;-56
2021/07/20 08:39:09;;;;;;;21.42;10.95;;;26.80;99.90;;;;;;5076652;28;20046;-58
2021/07/20 08:41:53;;;;;;;20.30;10.48;;;26.40;99.90;;;;;;5078391;28;20396;-59
2021/07/20 08:44:48;;;;;;;21.13;9.97;;;26.40;99.90;;;;;;5074744;28;20039;-57
2021/07/20 08:47:31;;;;;;;22.95;9.85;;;26.90;99.90;;;;;;5072814;28;20042;-59
2021/07/20 08:50:18;;;;;;;25.27;10.85;;;26.80;99.90;;;;;;5084688;28;20040;-58
2021/07/20 08:53:17;;;;;;;22.73;10.93;;;27.20;99.90;;;;;;5080134;28;20036;-57
2021/07/20 08:55:44;;;;;;;22.63;10.50;;;27.00;99.90;;;;;;5074233;28;20035;-59
2021/07/20 08:58:25;;;;;;;21.30;10.05;;;27.40;99.90;;;;;;5076303;28;20028;-58
2021/07/20 09:01:05;;;;;;;38.50;12.52;;;27.80;99.90;;;;;;5073301;28;20048;-59
2021/07/20 09:03:35;;;;;;;24.05;10.38;;;27.90;99.90;;;;;;5078496;28;20024;-58
2021/07/20 09:06:06;;;;;;;29.60;11.00;;;28.00;99.90;;;;;;5071225;28;20064;-59
2021/07/20 09:08:54;;;;;;;28.88;12.02;;;28.00;99.90;;;;;;5071562;28;20029;-60
2021/07/20 09:11:46;;;;;;;25.27;10.30;;;27.70;99.90;;;;;;5080227;28;20432;-59
2021/07/20 09:14:45;;;;;;;23.02;11.80;;;28.10;99.90;;;;;;5080234;28;20051;-58
2021/07/20 09:17:34;;;;;;;23.85;12.07;;;28.40;99.90;;;;;;5072385;28;20754;-58
2021/07/20 09:20:24;;;;;;;21.88;10.90;;;28.50;99.90;;;;;;5078536;28;20056;-60
2021/07/20 09:22:51;;;;;;;31.15;16.38;;;28.70;99.90;;;;;;5072075;28;20374;-59
2021/07/20 09:25:39;;;;;;;22.60;10.65;;;28.80;99.90;;;;;;5079133;28;20031;-59
2021/07/20 09:28:04;;;;;;;25.15;10.63;;;29.00;99.90;;;;;;5076343;28;20044;-59
2021/07/20 09:30:38;;;;;;;24.88;10.38;;;29.00;99.90;;;;;;5078309;28;20073;-58
2021/07/20 09:33:20;;;;;;;18.00;9.37;;;28.90;99.90;;;;;;5070246;28;20050;-59
2021/07/20 09:35:56;;;;;;;17.83;8.85;;;28.90;99.90;;;;;;5070045;28;20271;-57
2021/07/20 09:38:43;;;;;;;20.08;9.63;;;28.80;99.90;;;;;;5071090;28;20036;-59
2021/07/20 09:41:33;;;;;;;21.95;8.70;;;28.80;99.90;;;;;;5069296;28;20029;-59
2021/07/20 09:44:25;;;;;;;21.20;8.98;;;29.00;99.90;;;;;;5070127;28;20031;-57
2021/07/20 09:47:02;;;;;;;17.58;8.23;;;29.10;99.90;;;;;;5077142;28;20028;-58
2021/07/20 09:49:54;;;;;;;19.88;9.07;;;29.20;99.90;;;;;;5070876;28;20707;-59
2021/07/20 09:52:39;;;;;;;18.27;8.70;;;29.30;99.90;;;;;;5070960;28;20040;-58
2021/07/20 09:55:24;;;;;;;18.80;9.35;;;29.60;99.90;;;;;;5069940;28;20024;-59
2021/07/20 09:58:22;;;;;;;22.58;8.85;;;29.20;99.90;;;;;;5073245;28;20120;-59
2021/07/20 10:00:56;;;;;;;21.70;8.98;;;29.20;99.90;;;;;;5069852;28;20319;-59
2021/07/20 10:03:45;;;;;;;16.35;8.32;;;29.00;99.90;;;;;;5070902;28;20090;-58
2021/07/20 10:06:19;;;;;;;19.58;9.40;;;28.90;99.90;;;;;;5070123;28;20394;-58
2021/07/20 10:08:47;;;;;;;18.67;8.63;;;28.70;99.90;;;;;;5075111;28;20386;-58
2021/07/20 10:11:30;;;;;;;17.98;8.52;;;29.20;99.90;;;;;;5070956;28;20036;-58
2021/07/20 10:14:24;;;;;;;22.65;8.48;;;29.20;99.90;;;;;;5070165;28;20036;-58
2021/07/20 10:17:21;;;;;;;21.42;9.30;;;29.20;99.90;;;;;;5069909;28;20486;-58
2021/07/20 10:19:51;;;;;;;18.02;8.60;;;29.20;99.90;;;;;;5060412;28;20102;-57
2021/07/20 10:22:25;;;;;;;15.23;8.88;;;28.90;99.90;;;;;;5075251;28;20032;-58
2021/07/20 10:24:58;;;;;;;;;;;29.10;99.90;;;;;;5077378;28;20039;-57
2021/07/20 10:27:53;;;;;;;18.35;8.30;;;29.10;99.90;;;;;;5069557;28;19904;-58
2021/07/20 10:30:20;;;;;;;15.95;7.75;;;29.30;99.90;;;;;;5069463;28;20056;-58
2021/07/20 10:33:17;;;;;;;19.27;8.20;;;29.40;99.90;;;;;;5078411;28;20036;-58
2021/07/20 10:36:18;;;;;;;16.42;8.68;;;29.80;99.90;;;;;;5069789;28;20043;-59
2021/07/20 10:39:16;;;;;;;22.80;8.82;;;29.40;99.90;;;;;;5070134;28;20040;-58
2021/07/20 10:42:12;;;;;;;18.88;8.85;;;29.50;99.90;;;;;;5069270;28;20031;-58
2021/07/20 10:45:03;;;;;;;15.90;8.07;;;29.70;99.90;;;;;;5069662;28;20060;-57
2021/07/20 10:47:40;;;;;;;22.25;8.63;;;29.80;99.90;;;;;;5070289;28;20040;-58
2021/07/20 10:50:07;;;;;;;21.58;9.10;;;29.90;99.90;;;;;;5071748;28;20547;-59
2021/07/20 10:53:00;;;;;;;20.27;9.48;;;29.80;99.90;;;;;;5073559;28;20036;-60
2021/07/20 10:59:32;;;;;;;16.80;8.18;;;29.60;99.90;;;;;;5075753;28;20546;-59
2021/07/20 11:02:20;;;;;;;18.88;8.05;;;29.60;99.90;;;;;;5075439;28;20033;-60
2021/07/20 11:08:09;;;;;;;21.92;8.43;;;29.90;99.90;;;;;;5075332;28;20468;-59
2021/07/20 11:10:44;;;;;;;14.57;7.13;;;30.10;99.90;;;;;;5075335;28;20067;-59
2021/07/20 11:13:14;;;;;;;19.30;8.43;;;30.30;99.90;;;;;;5075086;28;20056;-58
2021/07/20 11:19:03;;;;;;;20.08;8.63;;;30.60;99.90;;;;;;5074227;28;20032;-58
2021/07/20 11:21:31;;;;;;;23.13;8.15;;;30.80;99.90;;;;;;5077822;28;20024;-58
2021/07/20 11:23:58;;;;;;;14.75;7.90;;;30.80;99.90;;;;;;5087607;28;20478;-58
2021/07/20 11:26:25;;;;;;;18.15;8.73;;;30.70;99.90;;;;;;5075453;28;20041;-58
2021/07/20 11:28:52;;;;;;;22.60;9.57;;;30.50;99.90;;;;;;5074972;28;20048;-59
2021/07/20 11:31:33;;;;;;;14.40;8.32;;;30.00;99.90;;;;;;5072211;28;20036;-57
2021/07/20 11:34:24;;;;;;;19.35;8.32;;;30.20;99.90;;;;;;5073227;28;20090;-58
2021/07/20 11:36:54;;;;;;;13.65;8.60;;;30.30;99.90;;;;;;5072260;28;20360;-59
2021/07/20 11:39:23;;;;;;;18.05;9.20;;;29.90;99.90;;;;;;5073006;28;20050;-58
2021/07/20 11:42:10;;;;;;;15.27;8.43;;;29.80;99.90;;;;;;5071945;28;20028;-59
2021/07/20 11:44:50;;;;;;;21.17;9.88;;;29.70;99.90;;;;;;5072650;28;20094;-59
2021/07/20 11:47:34;;;;;;;12.93;7.70;;;30.10;99.90;;;;;;5072928;28;20359;-58
2021/07/20 11:50:09;;;;;;;17.52;7.53;;;30.50;99.90;;;;;;5072006;28;20489;-58
2021/07/20 11:52:47;;;;;;;14.25;7.20;;;30.80;99.90;;;;;;5072649;28;20067;-59
2021/07/20 11:55:19;;;;;;;17.48;8.65;;;30.70;99.90;;;;;;5071985;28;20033;-58
2021/07/20 11:58:19;;;;;;;13.75;8.13;;;30.70;99.90;;;;;;5071395;28;20450;-59
2021/07/20 12:01:03;;;;;;;18.02;9.05;;;30.60;99.90;;;;;;5072047;28;20025;-59
2021/07/20 12:03:37;;;;;;;13.05;8.07;;;30.60;99.90;;;;;;5071960;28;20039;-57
2021/07/20 12:06:24;;;;;;;13.93;7.80;;;30.50;99.90;;;;;;5071720;28;20032;-59
2021/07/20 12:09:17;;;;;;;23.15;8.52;;;30.60;99.90;;;;;;5072272;28;20035;-58
2021/07/20 12:11:46;;;;;;;16.80;8.30;;;30.90;99.90;;;;;;5070368;28;20108;-60
2021/07/20 12:14:12;;;;;;;15.70;8.85;;;31.00;99.90;;;;;;5072568;28;20060;-58
2021/07/20 12:16:46;;;;;;;15.23;8.65;;;30.90;99.90;;;;;;5080902;28;20443;-58
2021/07/20 12:19:13;;;;;;;19.33;10.05;;;30.90;99.90;;;;;;5072155;28;20554;-59
2021/07/20 12:21:42;;;;;;;17.50;8.90;;;30.80;99.90;;;;;;5071180;28;20037;-59
2021/07/20 12:24:11;;;;;;;15.82;8.80;;;30.60;99.90;;;;;;5074211;28;20043;-58
2021/07/20 12:26:39;;;;;;;15.95;8.20;;;30.30;99.90;;;;;;5071059;28;20025;-58
2021/07/20 12:29:08;;;;;;;12.48;8.13;;;30.50;99.90;;;;;;5070659;28;20044;-58
2021/07/20 12:31:35;;;;;;;17.65;9.02;;;30.60;99.90;;;;;;5071489;28;20124;-59
2021/07/20 12:34:02;;;;;;;11.27;7.95;;;30.50;99.90;;;;;;5072018;28;20044;-59
2021/07/20 12:36:29;;;;;;;12.68;7.72;;;30.60;99.90;;;;;;5072494;28;20100;-58
2021/07/20 12:39:12;;;;;;;16.75;8.95;;;30.50;99.90;;;;;;5075093;28;20047;-59
2021/07/20 12:41:42;;;;;;;19.77;8.40;;;30.70;99.90;;;;;;5071055;28;20032;-58
2021/07/20 12:44:08;;;;;;;14.73;8.32;;;30.80;99.90;;;;;;5071760;28;20036;-57
2021/07/20 12:46:40;;;;;;;17.65;8.70;;;30.90;99.90;;;;;;5070852;28;20032;-58
2021/07/20 12:49:06;;;;;;;15.80;8.00;;;30.70;99.90;;;;;;5071670;28;20032;-60
2021/07/20 12:51:33;;;;;;;18.42;8.55;;;30.80;99.90;;;;;;5070400;28;20043;-60
2021/07/20 12:53:59;;;;;;;14.38;8.10;;;31.00;99.90;;;;;;5071775;28;20382;-60
2021/07/20 12:56:27;;;;;;;12.73;8.65;;;31.20;99.90;;;;;;5070064;28;20035;-60
2021/07/20 12:59:05;;;;;;;18.05;8.80;;;31.20;99.90;;;;;;5071508;28;20520;-59
2021/07/20 13:01:33;;;;;;;17.60;8.23;;;31.10;99.90;;;;;;5073585;28;20036;-59
2021/07/20 13:04:04;;;;;;;13.68;8.05;;;31.30;99.90;;;;;;5070076;28;20036;-56
2021/07/20 13:06:38;;;;;;;19.08;9.45;;;31.40;99.90;;;;;;5071360;28;20040;-60